Terminal Aerodrome Forecast
Issued by NWS Portland, OR

Home | Current Version | Previous Version | Text Only | Print | Product List | Glossary On
Versions: 1 2 3 4 5 6 7 8 9 10 11 12 13
000
FTUS46 KPQR 161140
TAFTTD
TAF
KTTD 161140Z 1612/1712 VRB03KT 5SM BR BKN025 OVC040
     FM161800 11003KT P6SM -RA BKN025 OVC040
     FM162300 VRB03KT P6SM VCSH SCT030 OVC050
     FM170400 10005KT P6SM -RA BKN025 OVC040=

USA.gov is the U.S. government's official web portal to all federal, state and local government web resources and services.